sensor_id;sensor_type;location;lat;lon;timestamp;pressure;altitude;pressure_sealevel;temperature;humidity
76460;BME280;65299;46.084;18.762;2023-07-09T00:00:42;101035.81;;;18.04;75.97
76460;BME280;65299;46.084;18.762;2023-07-09T00:03:46;101044.81;;;17.94;75.67
76460;BME280;65299;46.084;18.762;2023-07-09T00:06:51;101045.50;;;18.00;75.47
76460;BME280;65299;46.084;18.762;2023-07-09T00:09:53;101044.31;;;17.92;75.85
76460;BME280;65299;46.084;18.762;2023-07-09T00:12:54;101052.00;;;17.99;75.64
76460;BME280;65299;46.084;18.762;2023-07-09T00:15:58;101047.78;;;17.93;75.55
76460;BME280;65299;46.084;18.762;2023-07-09T00:18:59;101052.44;;;17.87;75.65
76460;BME280;65299;46.084;18.762;2023-07-09T00:22:02;101052.00;;;17.80;75.98
76460;BME280;65299;46.084;18.762;2023-07-09T00:25:02;101053.63;;;17.63;76.72
76460;BME280;65299;46.084;18.762;2023-07-09T00:28:04;101053.34;;;17.64;76.98
76460;BME280;65299;46.084;18.762;2023-07-09T00:31:05;101055.28;;;17.77;76.38
76460;BME280;65299;46.084;18.762;2023-07-09T00:34:05;101054.28;;;17.73;76.12
76460;BME280;65299;46.084;18.762;2023-07-09T00:37:10;101048.69;;;17.70;75.80
76460;BME280;65299;46.084;18.762;2023-07-09T00:40:19;101053.34;;;17.64;76.21
76460;BME280;65299;46.084;18.762;2023-07-09T00:43:21;101053.53;;;17.68;76.10
76460;BME280;65299;46.084;18.762;2023-07-09T00:49:34;101061.03;;;17.47;76.38
76460;BME280;65299;46.084;18.762;2023-07-09T00:52:45;101057.28;;;17.48;76.52
76460;BME280;65299;46.084;18.762;2023-07-09T00:56:09;101055.03;;;17.36;77.02
76460;BME280;65299;46.084;18.762;2023-07-09T00:59:15;101065.25;;;17.34;77.10
76460;BME280;65299;46.084;18.762;2023-07-09T01:02:17;101059.75;;;17.26;77.08
76460;BME280;65299;46.084;18.762;2023-07-09T01:05:23;101057.78;;;17.31;76.95
76460;BME280;65299;46.084;18.762;2023-07-09T01:08:24;101053.06;;;17.23;77.16
76460;BME280;65299;46.084;18.762;2023-07-09T01:11:24;101048.53;;;17.19;77.07
76460;BME280;65299;46.084;18.762;2023-07-09T01:14:25;101042.78;;;17.07;77.44
76460;BME280;65299;46.084;18.762;2023-07-09T01:17:27;101051.56;;;17.12;77.22
76460;BME280;65299;46.084;18.762;2023-07-09T01:20:28;101053.13;;;17.18;76.81
76460;BME280;65299;46.084;18.762;2023-07-09T01:23:28;101055.88;;;17.13;76.77
76460;BME280;65299;46.084;18.762;2023-07-09T01:26:29;101057.81;;;17.08;77.35
76460;BME280;65299;46.084;18.762;2023-07-09T01:29:35;101059.47;;;17.04;77.39
76460;BME280;65299;46.084;18.762;2023-07-09T01:32:37;101061.88;;;17.05;76.81
76460;BME280;65299;46.084;18.762;2023-07-09T01:35:39;101064.59;;;17.00;77.01
76460;BME280;65299;46.084;18.762;2023-07-09T01:38:43;101064.88;;;16.99;76.95
76460;BME280;65299;46.084;18.762;2023-07-09T01:41:44;101071.72;;;16.86;77.55
76460;BME280;65299;46.084;18.762;2023-07-09T01:44:49;101070.94;;;16.86;77.60
76460;BME280;65299;46.084;18.762;2023-07-09T01:47:51;101073.75;;;16.76;78.10
76460;BME280;65299;46.084;18.762;2023-07-09T01:50:53;101067.31;;;16.72;77.96
76460;BME280;65299;46.084;18.762;2023-07-09T01:53:54;101068.38;;;16.76;77.47
76460;BME280;65299;46.084;18.762;2023-07-09T01:57:11;101070.41;;;16.60;78.11
76460;BME280;65299;46.084;18.762;2023-07-09T02:00:14;101070.97;;;16.57;78.14
76460;BME280;65299;46.084;18.762;2023-07-09T02:03:15;101062.88;;;16.62;77.44
76460;BME280;65299;46.084;18.762;2023-07-09T02:06:17;101079.53;;;16.59;77.64
76460;BME280;65299;46.084;18.762;2023-07-09T02:09:20;101065.16;;;16.50;77.86
76460;BME280;65299;46.084;18.762;2023-07-09T02:12:20;101075.03;;;16.54;77.51
76460;BME280;65299;46.084;18.762;2023-07-09T02:15:20;101071.88;;;16.42;78.17
76460;BME280;65299;46.084;18.762;2023-07-09T02:18:21;101080.44;;;16.44;78.23
76460;BME280;65299;46.084;18.762;2023-07-09T02:21:21;101077.25;;;16.42;77.91
76460;BME280;65299;46.084;18.762;2023-07-09T02:24:22;101077.78;;;16.39;78.16
76460;BME280;65299;46.084;18.762;2023-07-09T02:27:27;101087.47;;;16.35;78.28
76460;BME280;65299;46.084;18.762;2023-07-09T02:30:28;101081.66;;;16.28;78.38
76460;BME280;65299;46.084;18.762;2023-07-09T02:33:28;101085.63;;;16.31;78.01
76460;BME280;65299;46.084;18.762;2023-07-09T02:36:33;101094.34;;;16.13;78.98
76460;BME280;65299;46.084;18.762;2023-07-09T02:39:34;101095.88;;;16.24;78.51
76460;BME280;65299;46.084;18.762;2023-07-09T02:42:34;101098.34;;;16.20;78.34
76460;BME280;65299;46.084;18.762;2023-07-09T02:45:34;101102.38;;;16.18;78.78
76460;BME280;65299;46.084;18.762;2023-07-09T02:48:35;101098.56;;;16.24;78.29
76460;BME280;65299;46.084;18.762;2023-07-09T02:51:35;101103.41;;;16.22;78.37
76460;BME280;65299;46.084;18.762;2023-07-09T02:54:36;101103.19;;;16.13;78.50
76460;BME280;65299;46.084;18.762;2023-07-09T02:57:36;101104.53;;;16.16;78.09
76460;BME280;65299;46.084;18.762;2023-07-09T03:00:37;101111.00;;;16.10;78.07
76460;BME280;65299;46.084;18.762;2023-07-09T03:03:37;101113.47;;;16.01;78.16
76460;BME280;65299;46.084;18.762;2023-07-09T03:06:37;101115.06;;;16.02;78.23
76460;BME280;65299;46.084;18.762;2023-07-09T03:09:38;101116.38;;;16.05;78.13
76460;BME280;65299;46.084;18.762;2023-07-09T03:12:38;101116.75;;;15.88;78.45
76460;BME280;65299;46.084;18.762;2023-07-09T03:15:39;101116.19;;;15.96;78.14
76460;BME280;65299;46.084;18.762;2023-07-09T03:18:39;101121.59;;;15.86;78.32
76460;BME280;65299;46.084;18.762;2023-07-09T03:21:40;101113.00;;;15.89;78.67
76460;BME280;65299;46.084;18.762;2023-07-09T03:24:40;101108.47;;;15.90;78.31
76460;BME280;65299;46.084;18.762;2023-07-09T03:27:41;101110.09;;;15.86;78.56
76460;BME280;65299;46.084;18.762;2023-07-09T03:30:45;101106.47;;;16.05;78.21
76460;BME280;65299;46.084;18.762;2023-07-09T03:33:47;101122.06;;;15.98;77.88
76460;BME280;65299;46.084;18.762;2023-07-09T03:36:48;101116.56;;;15.80;78.36
76460;BME280;65299;46.084;18.762;2023-07-09T03:39:48;101122.66;;;15.85;78.49
76460;BME280;65299;46.084;18.762;2023-07-09T03:42:49;101120.28;;;15.78;78.57
76460;BME280;65299;46.084;18.762;2023-07-09T03:45:50;101121.25;;;15.98;77.69
76460;BME280;65299;46.084;18.762;2023-07-09T03:48:51;101113.75;;;15.95;77.74
76460;BME280;65299;46.084;18.762;2023-07-09T03:51:51;101118.59;;;15.93;77.55
76460;BME280;65299;46.084;18.762;2023-07-09T03:54:52;101112.41;;;16.02;77.18
76460;BME280;65299;46.084;18.762;2023-07-09T03:57:54;101122.09;;;16.27;76.43
76460;BME280;65299;46.084;18.762;2023-07-09T04:00:54;101128.84;;;16.58;75.31
76460;BME280;65299;46.084;18.762;2023-07-09T04:03:55;101127.69;;;16.93;73.86
76460;BME280;65299;46.084;18.762;2023-07-09T04:06:55;101131.84;;;17.32;72.36
76460;BME280;65299;46.084;18.762;2023-07-09T04:09:56;101128.28;;;17.37;71.30
76460;BME280;65299;46.084;18.762;2023-07-09T04:12:57;101129.13;;;17.56;71.01
76460;BME280;65299;46.084;18.762;2023-07-09T04:15:57;101133.59;;;18.03;70.12
76460;BME280;65299;46.084;18.762;2023-07-09T04:18:58;101135.75;;;18.01;69.56
76460;BME280;65299;46.084;18.762;2023-07-09T04:21:58;101131.47;;;18.18;68.92
76460;BME280;65299;46.084;18.762;2023-07-09T04:24:59;101130.41;;;18.52;68.09
76460;BME280;65299;46.084;18.762;2023-07-09T04:27:59;101138.84;;;18.77;67.78
76460;BME280;65299;46.084;18.762;2023-07-09T04:31:00;101137.38;;;19.12;66.35
76460;BME280;65299;46.084;18.762;2023-07-09T04:34:00;101136.50;;;19.03;66.49
76460;BME280;65299;46.084;18.762;2023-07-09T04:37:02;101133.91;;;19.12;66.10
76460;BME280;65299;46.084;18.762;2023-07-09T04:40:03;101132.91;;;19.21;66.82
76460;BME280;65299;46.084;18.762;2023-07-09T04:43:07;101133.44;;;19.50;66.56
76460;BME280;65299;46.084;18.762;2023-07-09T04:46:07;101133.34;;;19.77;65.55
76460;BME280;65299;46.084;18.762;2023-07-09T04:49:08;101137.88;;;19.68;66.50
76460;BME280;65299;46.084;18.762;2023-07-09T04:52:11;101145.03;;;19.73;66.13
76460;BME280;65299;46.084;18.762;2023-07-09T04:55:12;101128.75;;;20.14;64.92
76460;BME280;65299;46.084;18.762;2023-07-09T04:58:12;101133.84;;;20.59;64.42
76460;BME280;65299;46.084;18.762;2023-07-09T05:01:13;101127.94;;;20.80;63.75
76460;BME280;65299;46.084;18.762;2023-07-09T05:04:13;101137.00;;;21.14;62.32
76460;BME280;65299;46.084;18.762;2023-07-09T05:07:13;101138.34;;;21.42;62.44
76460;BME280;65299;46.084;18.762;2023-07-09T05:10:14;101137.25;;;21.43;62.85
76460;BME280;65299;46.084;18.762;2023-07-09T05:13:15;101131.69;;;21.48;62.57
76460;BME280;65299;46.084;18.762;2023-07-09T05:16:16;101140.84;;;21.87;62.59
76460;BME280;65299;46.084;18.762;2023-07-09T05:19:17;101135.28;;;22.26;61.29
76460;BME280;65299;46.084;18.762;2023-07-09T05:22:17;101137.00;;;22.39;62.55
76460;BME280;65299;46.084;18.762;2023-07-09T05:25:18;101136.00;;;22.78;61.06
76460;BME280;65299;46.084;18.762;2023-07-09T05:28:18;101146.84;;;22.69;61.93
76460;BME280;65299;46.084;18.762;2023-07-09T05:31:18;101140.41;;;22.91;60.80
76460;BME280;65299;46.084;18.762;2023-07-09T05:34:19;101146.56;;;23.08;59.21
76460;BME280;65299;46.084;18.762;2023-07-09T05:37:19;101148.31;;;23.42;58.60
76460;BME280;65299;46.084;18.762;2023-07-09T05:40:20;101140.75;;;23.56;57.17
76460;BME280;65299;46.084;18.762;2023-07-09T05:43:21;101140.75;;;23.56;57.54
76460;BME280;65299;46.084;18.762;2023-07-09T05:46:22;101146.06;;;23.44;57.66
76460;BME280;65299;46.084;18.762;2023-07-09T05:49:23;101146.56;;;23.67;55.63
76460;BME280;65299;46.084;18.762;2023-07-09T05:52:23;101147.78;;;23.78;56.83
76460;BME280;65299;46.084;18.762;2023-07-09T05:55:24;101143.69;;;24.13;54.80
76460;BME280;65299;46.084;18.762;2023-07-09T05:58:24;101143.56;;;24.10;54.08
76460;BME280;65299;46.084;18.762;2023-07-09T06:01:25;101142.66;;;24.38;54.96
76460;BME280;65299;46.084;18.762;2023-07-09T06:04:26;101158.69;;;24.64;55.31
76460;BME280;65299;46.084;18.762;2023-07-09T06:07:27;101148.88;;;24.72;55.25
76460;BME280;65299;46.084;18.762;2023-07-09T06:10:27;101154.34;;;24.51;55.75
76460;BME280;65299;46.084;18.762;2023-07-09T06:13:30;101163.50;;;24.79;56.06
76460;BME280;65299;46.084;18.762;2023-07-09T06:16:33;101159.56;;;25.13;56.76
76460;BME280;65299;46.084;18.762;2023-07-09T06:19:33;101161.84;;;24.99;56.01
76460;BME280;65299;46.084;18.762;2023-07-09T06:22:34;101158.09;;;25.03;55.55
76460;BME280;65299;46.084;18.762;2023-07-09T06:25:34;101165.78;;;24.89;55.61
76460;BME280;65299;46.084;18.762;2023-07-09T06:28:34;101169.69;;;25.12;53.16
76460;BME280;65299;46.084;18.762;2023-07-09T06:31:35;101168.97;;;25.39;54.29
76460;BME280;65299;46.084;18.762;2023-07-09T06:34:37;101166.28;;;25.76;52.06
76460;BME280;65299;46.084;18.762;2023-07-09T06:37:37;101166.22;;;26.00;50.69
76460;BME280;65299;46.084;18.762;2023-07-09T06:40:38;101164.84;;;26.06;47.59
76460;BME280;65299;46.084;18.762;2023-07-09T06:43:38;101166.97;;;26.00;48.84
76460;BME280;65299;46.084;18.762;2023-07-09T06:46:38;101173.31;;;26.04;48.53
76460;BME280;65299;46.084;18.762;2023-07-09T06:49:39;101167.22;;;26.35;48.65
76460;BME280;65299;46.084;18.762;2023-07-09T06:52:39;101165.31;;;26.51;47.73
76460;BME280;65299;46.084;18.762;2023-07-09T06:55:40;101162.53;;;26.75;45.38
76460;BME280;65299;46.084;18.762;2023-07-09T06:58:40;101161.81;;;26.94;44.48
76460;BME280;65299;46.084;18.762;2023-07-09T07:01:41;101167.53;;;27.04;45.42
76460;BME280;65299;46.084;18.762;2023-07-09T07:04:41;101171.41;;;27.19;45.05
76460;BME280;65299;46.084;18.762;2023-07-09T07:07:41;101168.13;;;27.29;44.11
76460;BME280;65299;46.084;18.762;2023-07-09T07:10:42;101171.41;;;27.50;43.71
76460;BME280;65299;46.084;18.762;2023-07-09T07:13:43;101172.38;;;27.77;44.12
76460;BME280;65299;46.084;18.762;2023-07-09T07:16:43;101173.00;;;27.70;45.18
76460;BME280;65299;46.084;18.762;2023-07-09T07:19:44;101172.38;;;27.77;43.77
76460;BME280;65299;46.084;18.762;2023-07-09T07:22:45;101175.31;;;27.68;42.47
76460;BME280;65299;46.084;18.762;2023-07-09T07:25:46;101170.41;;;27.58;42.68
76460;BME280;65299;46.084;18.762;2023-07-09T07:28:47;101167.31;;;27.60;43.41
76460;BME280;65299;46.084;18.762;2023-07-09T07:31:47;101167.19;;;27.37;44.15
76460;BME280;65299;46.084;18.762;2023-07-09T07:34:48;101167.56;;;27.70;44.16
76460;BME280;65299;46.084;18.762;2023-07-09T07:37:48;101169.53;;;27.89;43.65
76460;BME280;65299;46.084;18.762;2023-07-09T07:40:49;101163.47;;;27.96;42.78
76460;BME280;65299;46.084;18.762;2023-07-09T07:43:49;101161.22;;;28.20;44.14
76460;BME280;65299;46.084;18.762;2023-07-09T07:46:50;101163.06;;;28.54;42.86
76460;BME280;65299;46.084;18.762;2023-07-09T07:49:51;101166.28;;;28.79;42.49
76460;BME280;65299;46.084;18.762;2023-07-09T07:52:51;101162.56;;;28.68;41.65
76460;BME280;65299;46.084;18.762;2023-07-09T07:55:51;101166.38;;;28.86;43.07
76460;BME280;65299;46.084;18.762;2023-07-09T07:58:52;101158.44;;;29.23;41.26
76460;BME280;65299;46.084;18.762;2023-07-09T08:01:52;101153.31;;;28.99;41.48
76460;BME280;65299;46.084;18.762;2023-07-09T08:04:53;101160.16;;;29.34;40.57
76460;BME280;65299;46.084;18.762;2023-07-09T08:07:54;101158.69;;;29.40;40.83
76460;BME280;65299;46.084;18.762;2023-07-09T08:11:05;101157.63;;;29.22;40.94
76460;BME280;65299;46.084;18.762;2023-07-09T08:14:07;101155.56;;;29.16;39.47
76460;BME280;65299;46.084;18.762;2023-07-09T08:17:08;101155.06;;;29.10;38.29
76460;BME280;65299;46.084;18.762;2023-07-09T08:20:09;101159.91;;;29.17;38.51
76460;BME280;65299;46.084;18.762;2023-07-09T08:23:09;101159.44;;;29.37;37.18
76460;BME280;65299;46.084;18.762;2023-07-09T08:26:09;101161.00;;;29.38;37.84
76460;BME280;65299;46.084;18.762;2023-07-09T08:29:10;101168.88;;;29.70;35.93
76460;BME280;65299;46.084;18.762;2023-07-09T08:32:11;101168.84;;;29.92;34.06
76460;BME280;65299;46.084;18.762;2023-07-09T08:35:12;101172.25;;;29.86;31.84
76460;BME280;65299;46.084;18.762;2023-07-09T08:38:12;101162.72;;;30.06;30.29
76460;BME280;65299;46.084;18.762;2023-07-09T08:41:36;101167.91;;;30.11;30.34
76460;BME280;65299;46.084;18.762;2023-07-09T08:47:52;101168.91;;;30.29;31.02
76460;BME280;65299;46.084;18.762;2023-07-09T08:50:59;101165.88;;;30.38;32.22
76460;BME280;65299;46.084;18.762;2023-07-09T08:54:02;101169.47;;;30.45;28.61
76460;BME280;65299;46.084;18.762;2023-07-09T08:57:21;101165.56;;;30.46;29.35
76460;BME280;65299;46.084;18.762;2023-07-09T09:00:43;101165.94;;;30.45;28.28
76460;BME280;65299;46.084;18.762;2023-07-09T09:03:57;101163.47;;;30.73;27.45
76460;BME280;65299;46.084;18.762;2023-07-09T09:10:03;101159.03;;;30.54;28.81
76460;BME280;65299;46.084;18.762;2023-07-09T09:13:12;101162.25;;;30.30;26.23
76460;BME280;65299;46.084;18.762;2023-07-09T09:16:31;101157.56;;;30.67;26.10
76460;BME280;65299;46.084;18.762;2023-07-09T09:19:37;101162.63;;;30.62;26.80
76460;BME280;65299;46.084;18.762;2023-07-09T09:22:48;101167.66;;;30.56;26.97
76460;BME280;65299;46.084;18.762;2023-07-09T09:25:52;101163.19;;;30.81;27.63
76460;BME280;65299;46.084;18.762;2023-07-09T09:28:55;101166.44;;;30.90;26.41
76460;BME280;65299;46.084;18.762;2023-07-09T09:31:57;101154.28;;;30.91;27.49
76460;BME280;65299;46.084;18.762;2023-07-09T09:34:59;101154.47;;;31.13;26.09
76460;BME280;65299;46.084;18.762;2023-07-09T09:38:00;101150.84;;;31.01;25.08
76460;BME280;65299;46.084;18.762;2023-07-09T09:41:01;101156.22;;;30.87;25.01
76460;BME280;65299;46.084;18.762;2023-07-09T09:44:02;101152.75;;;30.94;25.12
76460;BME280;65299;46.084;18.762;2023-07-09T09:47:04;101155.56;;;31.01;24.75
76460;BME280;65299;46.084;18.762;2023-07-09T09:50:05;101153.13;;;30.92;25.86
76460;BME280;65299;46.084;18.762;2023-07-09T09:53:07;101147.59;;;30.89;26.80
76460;BME280;65299;46.084;18.762;2023-07-09T09:56:15;101154.34;;;30.98;24.92
76460;BME280;65299;46.084;18.762;2023-07-09T09:59:27;101154.50;;;31.20;23.24
76460;BME280;65299;46.084;18.762;2023-07-09T10:02:27;101147.25;;;31.41;23.11
76460;BME280;65299;46.084;18.762;2023-07-09T10:05:53;101150.53;;;31.68;21.17
76460;BME280;65299;46.084;18.762;2023-07-09T10:21:45;101143.81;;;31.58;23.70
76460;BME280;65299;46.084;18.762;2023-07-09T10:28:33;101137.22;;;31.77;23.15
76460;BME280;65299;46.084;18.762;2023-07-09T10:31:45;101138.78;;;31.67;22.22
76460;BME280;65299;46.084;18.762;2023-07-09T10:34:53;101133.09;;;31.36;22.27
76460;BME280;65299;46.084;18.762;2023-07-09T10:41:23;101134.13;;;31.82;22.11
76460;BME280;65299;46.084;18.762;2023-07-09T10:44:35;101123.91;;;31.72;22.58
76460;BME280;65299;46.084;18.762;2023-07-09T10:47:44;101120.75;;;31.70;22.60
76460;BME280;65299;46.084;18.762;2023-07-09T10:50:52;101124.81;;;32.04;23.12
76460;BME280;65299;46.084;18.762;2023-07-09T10:54:12;101118.47;;;31.86;21.91
76460;BME280;65299;46.084;18.762;2023-07-09T10:57:51;101118.81;;;31.81;21.26
76460;BME280;65299;46.084;18.762;2023-07-09T11:00:42;101117.56;;;31.64;23.80
76460;BME280;65299;46.084;18.762;2023-07-09T11:03:56;101113.25;;;31.60;22.46
76460;BME280;65299;46.084;18.762;2023-07-09T11:07:03;101119.25;;;31.90;20.19
76460;BME280;65299;46.084;18.762;2023-07-09T11:10:18;101120.94;;;32.12;19.51
76460;BME280;65299;46.084;18.762;2023-07-09T11:13:47;101112.28;;;32.10;20.67
76460;BME280;65299;46.084;18.762;2023-07-09T11:16:49;101119.78;;;32.24;20.82
76460;BME280;65299;46.084;18.762;2023-07-09T11:19:55;101118.13;;;31.95;21.54
76460;BME280;65299;46.084;18.762;2023-07-09T11:23:06;101116.19;;;32.09;22.38
76460;BME280;65299;46.084;18.762;2023-07-09T11:26:21;101116.19;;;32.06;21.91
76460;BME280;65299;46.084;18.762;2023-07-09T11:29:23;101116.19;;;32.02;21.33
76460;BME280;65299;46.084;18.762;2023-07-09T11:32:24;101115.44;;;32.09;20.44
76460;BME280;65299;46.084;18.762;2023-07-09T11:35:27;101119.75;;;32.13;21.60
76460;BME280;65299;46.084;18.762;2023-07-09T11:38:39;101116.22;;;32.16;20.75
76460;BME280;65299;46.084;18.762;2023-07-09T11:41:41;101116.19;;;32.09;20.34
76460;BME280;65299;46.084;18.762;2023-07-09T11:44:45;101105.13;;;31.88;20.26
76460;BME280;65299;46.084;18.762;2023-07-09T11:50:55;101107.50;;;31.93;20.72
76460;BME280;65299;46.084;18.762;2023-07-09T11:53:58;101103.03;;;31.60;21.19
76460;BME280;65299;46.084;18.762;2023-07-09T11:57:00;101098.84;;;31.80;21.59
76460;BME280;65299;46.084;18.762;2023-07-09T12:00:03;101105.56;;;31.97;24.94
76460;BME280;65299;46.084;18.762;2023-07-09T12:03:05;101098.19;;;32.26;21.71
76460;BME280;65299;46.084;18.762;2023-07-09T12:06:21;101091.94;;;32.39;22.29
76460;BME280;65299;46.084;18.762;2023-07-09T12:09:22;101088.78;;;32.23;21.61
76460;BME280;65299;46.084;18.762;2023-07-09T12:12:24;101090.38;;;32.31;22.06
76460;BME280;65299;46.084;18.762;2023-07-09T12:15:27;101075.84;;;32.31;21.35
76460;BME280;65299;46.084;18.762;2023-07-09T12:18:29;101080.94;;;32.39;22.27
76460;BME280;65299;46.084;18.762;2023-07-09T12:21:31;101077.28;;;31.89;22.54
76460;BME280;65299;46.084;18.762;2023-07-09T12:24:38;101083.63;;;32.08;23.63
76460;BME280;65299;46.084;18.762;2023-07-09T12:27:41;101075.22;;;31.65;22.16
76460;BME280;65299;46.084;18.762;2023-07-09T12:30:50;101070.19;;;31.81;23.39
76460;BME280;65299;46.084;18.762;2023-07-09T12:33:53;101069.53;;;32.20;23.06
76460;BME280;65299;46.084;18.762;2023-07-09T12:36:54;101067.13;;;31.94;23.67
76460;BME280;65299;46.084;18.762;2023-07-09T12:39:59;101070.34;;;32.45;23.52
76460;BME280;65299;46.084;18.762;2023-07-09T12:43:00;101065.19;;;32.15;22.18
76460;BME280;65299;46.084;18.762;2023-07-09T12:46:01;101058.81;;;31.83;22.68
76460;BME280;65299;46.084;18.762;2023-07-09T12:49:05;101055.31;;;31.82;22.81
76460;BME280;65299;46.084;18.762;2023-07-09T12:52:14;101047.19;;;32.35;23.48
76460;BME280;65299;46.084;18.762;2023-07-09T12:55:29;101042.44;;;32.01;23.22
76460;BME280;65299;46.084;18.762;2023-07-09T12:58:37;101048.75;;;32.33;23.56
76460;BME280;65299;46.084;18.762;2023-07-09T13:01:38;101040.94;;;32.70;22.69
76460;BME280;65299;46.084;18.762;2023-07-09T13:04:40;101030.31;;;32.54;23.71
76460;BME280;65299;46.084;18.762;2023-07-09T13:07:41;101033.81;;;32.87;23.40
76460;BME280;65299;46.084;18.762;2023-07-09T13:10:41;101038.56;;;33.00;22.94
76460;BME280;65299;46.084;18.762;2023-07-09T13:13:54;101036.22;;;32.63;22.90
76460;BME280;65299;46.084;18.762;2023-07-09T13:17:05;101040.09;;;32.20;23.43
76460;BME280;65299;46.084;18.762;2023-07-09T13:20:06;101027.16;;;32.77;24.25
76460;BME280;65299;46.084;18.762;2023-07-09T13:23:22;101034.22;;;32.18;23.24
76460;BME280;65299;46.084;18.762;2023-07-09T13:26:23;101026.34;;;32.10;23.98
76460;BME280;65299;46.084;18.762;2023-07-09T13:29:23;101035.38;;;32.14;24.28
76460;BME280;65299;46.084;18.762;2023-07-09T13:32:24;101027.19;;;32.45;24.36
76460;BME280;65299;46.084;18.762;2023-07-09T13:35:24;101024.81;;;32.54;23.21
76460;BME280;65299;46.084;18.762;2023-07-09T13:38:25;101023.88;;;31.69;23.80
76460;BME280;65299;46.084;18.762;2023-07-09T13:41:26;101024.69;;;31.87;23.42
76460;BME280;65299;46.084;18.762;2023-07-09T13:44:29;101025.59;;;32.23;23.55
76460;BME280;65299;46.084;18.762;2023-07-09T13:47:30;101021.28;;;32.43;23.02
76460;BME280;65299;46.084;18.762;2023-07-09T13:50:33;101025.19;;;32.60;22.58
76460;BME280;65299;46.084;18.762;2023-07-09T13:53:34;101027.94;;;33.02;23.54
76460;BME280;65299;46.084;18.762;2023-07-09T13:56:34;101023.66;;;32.48;23.68
76460;BME280;65299;46.084;18.762;2023-07-09T13:59:35;101030.69;;;32.32;25.26
76460;BME280;65299;46.084;18.762;2023-07-09T14:02:35;101022.06;;;32.68;26.24
76460;BME280;65299;46.084;18.762;2023-07-09T14:05:37;101016.56;;;32.54;25.27
76460;BME280;65299;46.084;18.762;2023-07-09T14:08:37;101020.88;;;32.38;26.43
76460;BME280;65299;46.084;18.762;2023-07-09T14:11:41;101015.41;;;32.59;24.31
76460;BME280;65299;46.084;18.762;2023-07-09T14:14:42;101015.03;;;32.64;27.89
76460;BME280;65299;46.084;18.762;2023-07-09T14:17:45;101016.16;;;32.81;28.32
76460;BME280;65299;46.084;18.762;2023-07-09T14:20:46;101015.75;;;32.86;24.93
76460;BME280;65299;46.084;18.762;2023-07-09T14:23:47;101008.69;;;32.85;25.57
76460;BME280;65299;46.084;18.762;2023-07-09T14:26:48;101012.63;;;32.38;25.52
76460;BME280;65299;46.084;18.762;2023-07-09T14:29:49;101012.50;;;31.64;26.44
76460;BME280;65299;46.084;18.762;2023-07-09T14:32:50;101018.00;;;31.71;25.86
76460;BME280;65299;46.084;18.762;2023-07-09T14:35:51;101008.69;;;32.85;24.52
76460;BME280;65299;46.084;18.762;2023-07-09T14:38:51;101009.38;;;34.10;23.24
76460;BME280;65299;46.084;18.762;2023-07-09T14:41:54;101007.53;;;35.56;22.31
76460;BME280;65299;46.084;18.762;2023-07-09T14:44:55;101004.88;;;37.38;20.67
76460;BME280;65299;46.084;18.762;2023-07-09T14:47:56;100999.97;;;36.63;20.51
76460;BME280;65299;46.084;18.762;2023-07-09T14:50:56;100998.22;;;36.73;19.84
76460;BME280;65299;46.084;18.762;2023-07-09T14:53:57;101001.53;;;35.92;21.63
76460;BME280;65299;46.084;18.762;2023-07-09T14:56:58;100991.19;;;37.67;18.79
76460;BME280;65299;46.084;18.762;2023-07-09T14:59:58;100984.97;;;36.84;20.22
76460;BME280;65299;46.084;18.762;2023-07-09T15:02:59;100988.88;;;36.44;21.11
76460;BME280;65299;46.084;18.762;2023-07-09T15:05:59;100985.72;;;38.15;19.36
76460;BME280;65299;46.084;18.762;2023-07-09T15:09:02;100981.47;;;39.29;18.18
76460;BME280;65299;46.084;18.762;2023-07-09T15:12:03;100987.41;;;39.81;18.63
76460;BME280;65299;46.084;18.762;2023-07-09T15:15:11;100978.78;;;39.66;19.15
76460;BME280;65299;46.084;18.762;2023-07-09T15:18:14;100982.94;;;38.47;21.05
76460;BME280;65299;46.084;18.762;2023-07-09T15:21:15;100982.94;;;38.15;20.64
76460;BME280;65299;46.084;18.762;2023-07-09T15:24:26;100987.78;;;37.04;23.06
76460;BME280;65299;46.084;18.762;2023-07-09T15:27:27;100981.00;;;38.60;20.69
76460;BME280;65299;46.084;18.762;2023-07-09T15:30:29;100981.63;;;39.88;18.79
76460;BME280;65299;46.084;18.762;2023-07-09T15:33:30;100979.88;;;40.07;17.97
76460;BME280;65299;46.084;18.762;2023-07-09T15:36:31;100986.75;;;40.15;18.07
76460;BME280;65299;46.084;18.762;2023-07-09T15:39:31;100973.94;;;39.42;20.52
76460;BME280;65299;46.084;18.762;2023-07-09T15:42:32;100971.56;;;39.15;21.85
76460;BME280;65299;46.084;18.762;2023-07-09T15:45:32;100972.28;;;38.30;21.12
76460;BME280;65299;46.084;18.762;2023-07-09T15:48:34;100969.91;;;37.24;22.04
76460;BME280;65299;46.084;18.762;2023-07-09T15:51:35;100969.75;;;37.51;24.06
76460;BME280;65299;46.084;18.762;2023-07-09T15:54:36;100963.69;;;37.40;22.10
76460;BME280;65299;46.084;18.762;2023-07-09T15:57:37;100966.66;;;37.49;22.77
76460;BME280;65299;46.084;18.762;2023-07-09T16:00:37;100963.34;;;35.83;24.72
76460;BME280;65299;46.084;18.762;2023-07-09T16:03:38;100964.69;;;34.37;24.96
76460;BME280;65299;46.084;18.762;2023-07-09T16:06:39;100958.91;;;33.66;26.24
76460;BME280;65299;46.084;18.762;2023-07-09T16:09:40;100970.88;;;33.20;27.65
76460;BME280;65299;46.084;18.762;2023-07-09T16:12:40;100956.00;;;33.04;27.40
76460;BME280;65299;46.084;18.762;2023-07-09T16:15:41;100964.28;;;32.90;26.82